Weather observations for the past three days for
Baker Municipal Airport
Metric (Imperial)
Date Time (pdt) Wind (kph) Vis. (km) Weather Sky Cond. Temperature (ºC) Relative Humidity Wind Chill (°C) Heat Index (°C) Pressure Precipitation (cm)
Air Dwpt 6 hour altimeter (cm) sea level (mb) 1 hr 3 hr 6 hr
Max. Min.
06 01:53 S 9 16.09 Fair CLR 6.1 3.3 82% 4 76.2 1014.7
06 00:53 S 7 16.09 Fair CLR 6.1 3.3 82% 5 76.17 1014.5
05 23:53 SE 6 16.09 Fair CLR 9.4 5 74% 76.12 1013.5
05 22:53 NW 17 16.09 Fair CLR 10.6 5 22.2 10 69% 76.1 1013.0
05 21:53 NW 15 16.09 Fair CLR 11.1 4.4 64% 76.1 1013.0
05 20:53 N 15 16.09 Fair CLR 12.8 3.3 53% 76.05 1012.6
05 19:53 NW 17 16.09 Fair CLR 16.1 3.3 43% 75.97 1011.3
05 18:53 NW 28 G 39 16.09 Fair CLR 19.4 3.3 35% 75.92 1010.6
05 17:53 NW 28 G 43 16.09 Fair CLR 21.1 5 35% 75.9 1010.3
05 16:53 NW 35 G 50 16.09 Mostly Cloudy and Breezy FEW075 BKN095 22.8 5 23.3 21.1 32% 75.87 1010.3
05 15:53 NW 37 G 50 16.09 A Few Clouds and Breezy FEW110 23.3 5.6 32% 75.87 1010.3
05 14:53 N 26 G 48 16.09 Fair CLR 23.3 7.2 36% 75.9 1010.6
05 13:53 NW 26 16.09 Fair CLR 22.8 4.4 30% 75.92 1010.6
05 12:53 N 26 G 44 16.09 Fair CLR 22.8 5 32% 75.92 1010.7
05 11:53 NW 20 G 41 16.09 Fair CLR 22.2 4.4 31% 75.92 1010.5
05 10:53 NW 22 16.09 Fair CLR 21.7 5.6 21.7 6.7 35% 75.95 1010.6
05 09:53 NW 20 16.09 Fair CLR 20 6.7 42% 75.95 1010.6
05 08:53 W 15 16.09 Fair CLR 17.2 7.8 54% 75.92 1010.8
05 07:53 SW 7 16.09 Fair CLR 14.4 5.6 56% 75.92 1010.8
05 06:53 SW 9 16.09 Fair CLR 11.7 4.4 61% 75.9 1010.2
05 05:53 Vrbl 6 16.09 Fair CLR 10 3.9 66% 75.82 1009.4
05 04:53 SW 13 16.09 Fair CLR 6.7 3.3 12.2 4.4 79% 4 75.79 1009.0
05 03:53 SW 7 16.09 Fair CLR 6.1 3.3 82% 5 75.77 1008.7
05 02:53 S 6 16.09 Fair CLR 4.4 2.8 89% 75.74 1008.6
05 01:53 SW 6 16.09 Fair CLR 7.8 3.3 73% 75.74 1008.3
05 00:53 SW 7 16.09 Fair CLR 8.3 3.9 74% 7 75.77 1008.4
04 23:53 Calm 16.09 Fair CLR 11.7 3.3 57% 75.74 1007.9
04 22:53 NW 17 16.09 Fair CLR 12.2 3.3 23.3 11.7 55% 75.72 1007.4
04 21:53 NW 19 16.09 Fair CLR 13.3 3.3 51% 75.74 1007.8
04 20:53 N 24 16.09 Fair CLR 15 2.8 44% 75.69 1007.6
04 19:53 NW 26 16.09 Fair CLR 16.7 4.4 44% 75.62 1006.7
04 18:53 NW 28 16.09 Fair CLR 20 3.9 35% 75.59 1006.7
04 17:53 NW 28 G 43 16.09 Fair CLR 21.1 3.9 32% 75.62 1007.1
04 16:53 NW 30 G 43 16.09 Fair CLR 23.3 2.2 25 22.2 25% 75.62 1006.7
04 15:53 NW 31 G 46 16.09 Fair CLR 23.9 2.8 25% 25 75.62 1006.6
04 14:53 NW 31 G 44 16.09 Fair CLR 24.4 3.9 26% 25 75.67 1007.3
04 13:53 NW 35 G 56 16.09 Fair and Breezy CLR 24.4 4.4 27% 25 75.69 1007.4
04 12:53 NW 31 G 48 16.09 Fair CLR 23.9 3.3 26% 25 75.72 1007.8
04 11:53 N 26 16.09 Fair CLR 23.9 4.4 28% 25 75.74 1007.9
04 10:53 NW 28 16.09 Fair CLR 22.2 4.4 22.2 2.2 31% 75.77 1008.7
04 09:53 NW 22 16.09 Fair CLR 20.6 3.9 33% 75.79 1009.0
04 08:53 W 7 16.09 Fair CLR 15 4.4 49% 75.84 1009.8
04 07:53 Calm 16.09 Fair CLR 11.7 5.6 66% 75.87 1010.2
04 06:53 Calm 16.09 Fair CLR 6.1 2.8 80% 75.87 1010.4
04 05:53 S 6 16.09 Fair CLR 4.4 0.6 77% 75.84 1009.9
04 04:53 Calm 16.09 Fair CLR 5 0.6 11.7 3.9 73% 75.82 1009.5
04 03:53 Calm 16.09 Fair CLR 7.8 1.1 63% 75.84 1009.2
04 02:53 SW 7 16.09 Fair CLR 6.1 1.7 74% 5 75.82 1009.2
04 01:53 S 7 16.09 Fair CLR 6.1 1.1 71% 5 75.84 1009.5
04 00:53 SE 6 16.09 Fair CLR 6.7 1.7 71% 75.84 1009.9
03 23:53 SW 7 16.09 Fair CLR 11.7 1.7 51% 75.87 1009.8
03 22:53 SW 9 16.09 Fair CLR 9.4 3.3 24.4 8.3 66% 8 75.87 1010.3
03 21:53 NW 11 16.09 Fair CLR 11.1 3.3 59% 75.9 1010.5
03 20:53 NW 19 16.09 Fair CLR 15 3.3 46% 75.84 1010.0
03 19:53 NW 19 16.09 Fair CLR 16.7 3.3 41% 75.82 1009.8
03 18:53 NW 22 16.09 Fair CLR 20.6 3.3 32% 75.82 1010.0
03 17:53 N 26 G 43 16.09 Fair CLR 23.3 1.7 24% 75.84 1010.1
03 16:53 N 24 G 41 16.09 Fair CLR 24.4 3.3 25.6 18.9 25% 25 75.84 1010.1
03 15:53 N 24 16.09 Fair CLR 25 1.1 21% 25 75.9 1010.6
03 14:53 N 19 G 35 16.09 Fair CLR 25 0 19% 25 75.97 1011.7
03 13:53 N 24 16.09 Fair CLR 25 0.6 20% 25 76.02 1012.4
03 12:53 W 11 16.09 Fair CLR 23.3 5.6 32% 76.07 1013.1
03 11:53 NW 7 16.09 Fair CLR 21.7 6.7 38% 76.12 1014.0
03 10:53 Vrbl 6 16.09 Fair CLR 18.9 6.1 18.9 1.1 43% 76.17 1014.6
03 09:53 W 7 16.09 Fair CLR 17.2 4.4 43% 76.2 1015.0
03 08:53 Calm 16.09 Fair CLR 14.4 4.4 51% 76.25 1015.6
03 07:53 Calm 16.09 Fair CLR 10 2.8 61% 76.25 1015.4
03 06:53 E 6 16.09 Fair CLR 3.9 1.7 86% 76.28 1015.9
03 05:53 Calm 16.09 Fair CLR 1.7 1.1 96% 76.23 1015.8
03 04:53 Calm 16.09 Fair CLR 2.8 1.1 8.3 1.7 89% 76.23 1015.1
03 03:53 Calm 16.09 Fair CLR 3.3 1.7 89% 76.23 1015.1
03 02:53 Calm 16.09 Fair CLR 2.8 1.1 89% 76.2 1015.1
Date Time (pdt) Wind (kph) Vis. (km) Weather Sky Cond. Air Dwpt Max. Min. Relative Humidity Wind Chill (°C) Heat Index (°C) altimeter (cm) sea level (mb) 1 hr 3 hr 6 hr
6 hour
Temperature (ºC) Pressure Precipitation (cm)